Arbuckle, California
Current Conditions -  °F | °C
As of 4:53 AM on Thursday 27 Nov 2014 (Local Time) from KSMF Reporting Station
Light Fog Light Fog  
Wind Chill: 41°   Ceiling: 20000
Heat Index: 44°   Visibility: 2.5mi
Dew Point: 42°   Wind: 6mph
Humidity: 93%   Direction: 300°WNW
Pressure: 30.18"   Gusts: NA
Location:  39.02°N, 122.06°W
Report Text: KSMF 271253Z 30005KT 2 1/2SM BR BCFG SCT002 BKN200 07/06 A3018 RMK AO2 SLP220 T00670056
Loading
Personal Weather Stations






























Interactive Weather Map New forecast layout! Learn more

10-Day Weather Forecast

Advertisements
Track Severe Weather on mobile